sensor_id;sensor_type;location;lat;lon;timestamp;pressure;altitude;pressure_sealevel;temperature;humidity
36380;BME280;22411;53.016;18.632;2023-01-25T00:00:08;102944.28;;;-1.48;100.00
36380;BME280;22411;53.016;18.632;2023-01-25T00:02:55;102943.31;;;-1.55;100.00
36380;BME280;22411;53.016;18.632;2023-01-25T00:05:21;102947.63;;;-1.52;100.00
36380;BME280;22411;53.016;18.632;2023-01-25T00:07:47;102945.00;;;-1.55;100.00
36380;BME280;22411;53.016;18.632;2023-01-25T00:10:13;102950.84;;;-1.60;100.00
36380;BME280;22411;53.016;18.632;2023-01-25T00:12:39;102945.75;;;-1.60;100.00
36380;BME280;22411;53.016;18.632;2023-01-25T00:15:05;102944.88;;;-1.63;100.00
36380;BME280;22411;53.016;18.632;2023-01-25T00:17:31;102933.88;;;-1.61;100.00
36380;BME280;22411;53.016;18.632;2023-01-25T00:19:57;102940.75;;;-1.56;100.00
36380;BME280;22411;53.016;18.632;2023-01-25T00:22:23;102932.38;;;-1.51;100.00
36380;BME280;22411;53.016;18.632;2023-01-25T00:24:49;102937.47;;;-1.51;100.00
36380;BME280;22411;53.016;18.632;2023-01-25T00:27:15;102933.16;;;-1.53;100.00
36380;BME280;22411;53.016;18.632;2023-01-25T00:29:41;102931.44;;;-1.56;100.00
36380;BME280;22411;53.016;18.632;2023-01-25T00:34:42;102920.41;;;-1.56;100.00
36380;BME280;22411;53.016;18.632;2023-01-25T00:37:17;102918.69;;;-1.58;100.00
36380;BME280;22411;53.016;18.632;2023-01-25T00:39:45;102918.69;;;-1.58;100.00
36380;BME280;22411;53.016;18.632;2023-01-25T00:42:12;102907.81;;;-1.50;100.00
36380;BME280;22411;53.016;18.632;2023-01-25T00:44:39;102907.78;;;-1.52;100.00
36380;BME280;22411;53.016;18.632;2023-01-25T00:47:05;102906.09;;;-1.51;100.00
36380;BME280;22411;53.016;18.632;2023-01-25T00:49:32;102901.00;;;-1.51;100.00
36380;BME280;22411;53.016;18.632;2023-01-25T00:51:58;102896.78;;;-1.51;100.00
36380;BME280;22411;53.016;18.632;2023-01-25T00:54:24;102894.13;;;-1.55;100.00
36380;BME280;22411;53.016;18.632;2023-01-25T00:56:51;102894.13;;;-1.55;100.00
36380;BME280;22411;53.016;18.632;2023-01-25T00:59:18;102888.31;;;-1.48;100.00
36380;BME280;22411;53.016;18.632;2023-01-25T01:01:45;102888.22;;;-1.53;100.00
36380;BME280;22411;53.016;18.632;2023-01-25T01:04:10;102874.66;;;-1.53;100.00
36380;BME280;22411;53.016;18.632;2023-01-25T01:06:37;102878.81;;;-1.59;100.00
36380;BME280;22411;53.016;18.632;2023-01-25T01:09:06;102872.84;;;-1.61;100.00
36380;BME280;22411;53.016;18.632;2023-01-25T01:11:32;102875.47;;;-1.58;100.00
36380;BME280;22411;53.016;18.632;2023-01-25T01:13:58;102871.97;;;-1.61;100.00
36380;BME280;22411;53.016;18.632;2023-01-25T01:16:25;102877.06;;;-1.61;100.00
36380;BME280;22411;53.016;18.632;2023-01-25T01:18:51;102880.47;;;-1.61;100.00
36380;BME280;22411;53.016;18.632;2023-01-25T01:21:18;102876.97;;;-1.66;100.00
36380;BME280;22411;53.016;18.632;2023-01-25T01:23:45;102871.00;;;-1.68;100.00
36380;BME280;22411;53.016;18.632;2023-01-25T01:26:13;102866.03;;;-1.62;100.00
36380;BME280;22411;53.016;18.632;2023-01-25T01:28:40;102863.28;;;-1.74;100.00
36380;BME280;22411;53.016;18.632;2023-01-25T01:31:12;102868.50;;;-1.66;100.00
36380;BME280;22411;53.016;18.632;2023-01-25T01:33:38;102866.03;;;-1.63;100.00
36380;BME280;22411;53.016;18.632;2023-01-25T01:36:13;102857.59;;;-1.59;100.00
36380;BME280;22411;53.016;18.632;2023-01-25T01:38:40;102858.47;;;-1.59;100.00
36380;BME280;22411;53.016;18.632;2023-01-25T01:41:06;102864.47;;;-1.53;100.00
36380;BME280;22411;53.016;18.632;2023-01-25T01:43:32;102855.16;;;-1.54;100.00
36380;BME280;22411;53.016;18.632;2023-01-25T01:46:21;102850.81;;;-1.59;100.00
36380;BME280;22411;53.016;18.632;2023-01-25T01:54:25;102839.69;;;-1.65;100.00
36380;BME280;22411;53.016;18.632;2023-01-25T01:59:40;102832.13;;;-1.62;100.00
36380;BME280;22411;53.016;18.632;2023-01-25T02:02:09;102834.72;;;-1.59;100.00
36380;BME280;22411;53.016;18.632;2023-01-25T02:04:35;102823.72;;;-1.58;100.00
36380;BME280;22411;53.016;18.632;2023-01-25T02:07:10;102827.97;;;-1.57;100.00
36380;BME280;22411;53.016;18.632;2023-01-25T02:09:40;102821.97;;;-1.61;100.00
36380;BME280;22411;53.016;18.632;2023-01-25T02:12:08;102821.13;;;-1.60;100.00
36380;BME280;22411;53.016;18.632;2023-01-25T02:15:32;102807.53;;;-1.63;100.00
36380;BME280;22411;53.016;18.632;2023-01-25T02:18:50;102812.84;;;-1.49;100.00
36380;BME280;22411;53.016;18.632;2023-01-25T02:21:21;102817.09;;;-1.50;100.00
36380;BME280;22411;53.016;18.632;2023-01-25T02:24:07;102807.69;;;-1.54;100.00
36380;BME280;22411;53.016;18.632;2023-01-25T02:26:38;102808.47;;;-1.58;100.00
36380;BME280;22411;53.016;18.632;2023-01-25T02:29:06;102813.56;;;-1.56;100.00
36380;BME280;22411;53.016;18.632;2023-01-25T02:31:33;102812.72;;;-1.57;100.00
36380;BME280;22411;53.016;18.632;2023-01-25T02:34:01;102806.81;;;-1.54;100.00
36380;BME280;22411;53.016;18.632;2023-01-25T02:36:30;102806.78;;;-1.58;100.00
36380;BME280;22411;53.016;18.632;2023-01-25T02:39:08;102806.72;;;-1.61;100.00
36380;BME280;22411;53.016;18.632;2023-01-25T02:41:39;102801.56;;;-1.64;100.00
36380;BME280;22411;53.016;18.632;2023-01-25T02:44:09;102794.84;;;-1.62;100.00
36380;BME280;22411;53.016;18.632;2023-01-25T02:46:38;102792.22;;;-1.65;100.00
36380;BME280;22411;53.016;18.632;2023-01-25T02:49:06;102789.75;;;-1.62;100.00
36380;BME280;22411;53.016;18.632;2023-01-25T02:51:36;102795.69;;;-1.61;100.00
36380;BME280;22411;53.016;18.632;2023-01-25T02:54:04;102787.91;;;-1.69;100.00
36380;BME280;22411;53.016;18.632;2023-01-25T02:56:32;102785.50;;;-1.63;100.00
36380;BME280;22411;53.016;18.632;2023-01-25T02:58:58;102779.41;;;-1.71;100.00
36380;BME280;22411;53.016;18.632;2023-01-25T03:01:24;102782.00;;;-1.68;100.00
36380;BME280;22411;53.016;18.632;2023-01-25T03:03:50;102772.63;;;-1.70;100.00
36380;BME280;22411;53.016;18.632;2023-01-25T03:06:16;102774.41;;;-1.66;100.00
36380;BME280;22411;53.016;18.632;2023-01-25T03:08:45;102778.56;;;-1.70;100.00
36380;BME280;22411;53.016;18.632;2023-01-25T03:11:13;102767.59;;;-1.67;100.00
36380;BME280;22411;53.016;18.632;2023-01-25T03:13:39;102771.78;;;-1.71;100.00
36380;BME280;22411;53.016;18.632;2023-01-25T03:16:10;102767.44;;;-1.76;100.00
36380;BME280;22411;53.016;18.632;2023-01-25T03:18:37;102760.81;;;-1.68;100.00
36380;BME280;22411;53.016;18.632;2023-01-25T03:21:18;102759.81;;;-1.75;100.00
36380;BME280;22411;53.016;18.632;2023-01-25T03:23:46;102752.91;;;-1.82;100.00
36380;BME280;22411;53.016;18.632;2023-01-25T03:26:18;102750.41;;;-1.80;100.00
36380;BME280;22411;53.016;18.632;2023-01-25T03:28:45;102743.59;;;-1.83;100.00
36380;BME280;22411;53.016;18.632;2023-01-25T03:31:14;102740.22;;;-1.80;100.00
36380;BME280;22411;53.016;18.632;2023-01-25T03:33:41;102731.75;;;-1.79;100.00
36380;BME280;22411;53.016;18.632;2023-01-25T03:36:10;102730.06;;;-1.80;100.00
36380;BME280;22411;53.016;18.632;2023-01-25T03:38:36;102727.59;;;-1.77;100.00
36380;BME280;22411;53.016;18.632;2023-01-25T03:41:02;102719.19;;;-1.73;100.00
36380;BME280;22411;53.016;18.632;2023-01-25T03:43:29;102709.06;;;-1.70;100.00
36380;BME280;22411;53.016;18.632;2023-01-25T03:46:00;102710.66;;;-1.75;100.00
36380;BME280;22411;53.016;18.632;2023-01-25T03:48:27;102705.63;;;-1.74;100.00
36380;BME280;22411;53.016;18.632;2023-01-25T03:50:56;102702.94;;;-1.80;100.00
36380;BME280;22411;53.016;18.632;2023-01-25T03:53:28;102705.44;;;-1.83;100.00
36380;BME280;22411;53.016;18.632;2023-01-25T03:55:56;102706.28;;;-1.84;100.00
36380;BME280;22411;53.016;18.632;2023-01-25T03:58:25;102705.38;;;-1.86;100.00
36380;BME280;22411;53.016;18.632;2023-01-25T04:00:54;102703.69;;;-1.87;100.00
36380;BME280;22411;53.016;18.632;2023-01-25T04:03:20;102698.66;;;-1.84;100.00
36380;BME280;22411;53.016;18.632;2023-01-25T04:05:46;102708.69;;;-1.90;100.00
36380;BME280;22411;53.016;18.632;2023-01-25T04:08:13;102699.47;;;-1.85;100.00
36380;BME280;22411;53.016;18.632;2023-01-25T04:10:42;102702.06;;;-1.83;100.00
36380;BME280;22411;53.016;18.632;2023-01-25T04:13:08;102691.72;;;-1.91;100.00
36380;BME280;22411;53.016;18.632;2023-01-25T04:15:34;102696.78;;;-1.94;100.00
36380;BME280;22411;53.016;18.632;2023-01-25T04:18:00;102694.25;;;-1.94;100.00
36380;BME280;22411;53.016;18.632;2023-01-25T04:20:27;102692.66;;;-1.86;100.00
36380;BME280;22411;53.016;18.632;2023-01-25T04:22:53;102687.56;;;-1.88;100.00
36380;BME280;22411;53.016;18.632;2023-01-25T04:25:19;102683.34;;;-1.86;100.00
36380;BME280;22411;53.016;18.632;2023-01-25T04:27:45;102689.44;;;-1.77;100.00
36380;BME280;22411;53.016;18.632;2023-01-25T04:30:11;102693.69;;;-1.78;100.00
36380;BME280;22411;53.016;18.632;2023-01-25T04:32:37;102687.88;;;-1.69;100.00
36380;BME280;22411;53.016;18.632;2023-01-25T04:35:04;102684.47;;;-1.71;100.00
36380;BME280;22411;53.016;18.632;2023-01-25T04:37:30;102686.75;;;-1.85;100.00
36380;BME280;22411;53.016;18.632;2023-01-25T04:39:56;102682.56;;;-1.83;100.00
36380;BME280;22411;53.016;18.632;2023-01-25T04:42:21;102683.47;;;-1.79;100.00
36380;BME280;22411;53.016;18.632;2023-01-25T04:44:48;102687.41;;;-1.95;100.00
36380;BME280;22411;53.016;18.632;2023-01-25T04:47:13;102694.25;;;-1.94;100.00
36380;BME280;22411;53.016;18.632;2023-01-25T04:49:39;102684.97;;;-1.91;100.00
36380;BME280;22411;53.016;18.632;2023-01-25T04:52:05;102690.13;;;-1.88;100.00
36380;BME280;22411;53.016;18.632;2023-01-25T04:54:31;102693.53;;;-1.86;100.00
36380;BME280;22411;53.016;18.632;2023-01-25T04:56:57;102685.03;;;-1.86;100.00
36380;BME280;22411;53.016;18.632;2023-01-25T04:59:23;102685.03;;;-1.86;100.00
36380;BME280;22411;53.016;18.632;2023-01-25T05:01:49;102691.06;;;-1.81;100.00
36380;BME280;22411;53.016;18.632;2023-01-25T05:04:15;102688.53;;;-1.79;100.00
36380;BME280;22411;53.016;18.632;2023-01-25T05:06:40;102687.63;;;-1.85;100.00
36380;BME280;22411;53.016;18.632;2023-01-25T05:09:08;102694.50;;;-1.79;100.00
36380;BME280;22411;53.016;18.632;2023-01-25T05:11:34;102685.97;;;-1.81;100.00
36380;BME280;22411;53.016;18.632;2023-01-25T05:14:00;102682.59;;;-1.80;100.00
36380;BME280;22411;53.016;18.632;2023-01-25T05:16:26;102684.38;;;-1.76;100.00
36380;BME280;22411;53.016;18.632;2023-01-25T05:18:55;102672.59;;;-1.71;100.00
36380;BME280;22411;53.016;18.632;2023-01-25T05:21:21;102682.78;;;-1.71;100.00
36380;BME280;22411;53.016;18.632;2023-01-25T05:24:06;102670.97;;;-1.67;100.00
36380;BME280;22411;53.016;18.632;2023-01-25T05:26:33;102676.72;;;-1.77;100.00
36380;BME280;22411;53.016;18.632;2023-01-25T05:29:18;102673.41;;;-1.73;100.00
36380;BME280;22411;53.016;18.632;2023-01-25T05:31:43;102673.41;;;-1.73;100.00
36380;BME280;22411;53.016;18.632;2023-01-25T05:34:10;102668.19;;;-1.79;100.00
36380;BME280;22411;53.016;18.632;2023-01-25T05:36:35;102666.56;;;-1.77;100.00
36380;BME280;22411;53.016;18.632;2023-01-25T05:39:04;102669.09;;;-1.79;100.00
36380;BME280;22411;53.016;18.632;2023-01-25T05:41:31;102655.56;;;-1.76;100.00
36380;BME280;22411;53.016;18.632;2023-01-25T05:43:57;102660.63;;;-1.78;100.00
36380;BME280;22411;53.016;18.632;2023-01-25T05:46:23;102652.91;;;-1.82;100.00
36380;BME280;22411;53.016;18.632;2023-01-25T05:48:49;102650.47;;;-1.76;100.00
36380;BME280;22411;53.016;18.632;2023-01-25T05:51:14;102650.47;;;-1.76;100.00
36380;BME280;22411;53.016;18.632;2023-01-25T05:53:41;102649.59;;;-1.78;100.00
36380;BME280;22411;53.016;18.632;2023-01-25T05:56:08;102651.28;;;-1.79;100.00
36380;BME280;22411;53.016;18.632;2023-01-25T05:58:36;102648.59;;;-1.88;100.00
36380;BME280;22411;53.016;18.632;2023-01-25T06:01:04;102641.81;;;-1.88;100.00
36380;BME280;22411;53.016;18.632;2023-01-25T06:03:30;102644.38;;;-1.86;100.00
36380;BME280;22411;53.016;18.632;2023-01-25T06:05:57;102640.19;;;-1.82;100.00
36380;BME280;22411;53.016;18.632;2023-01-25T06:08:24;102641.13;;;-1.77;100.00
36380;BME280;22411;53.016;18.632;2023-01-25T06:10:51;102643.53;;;-1.85;100.00
36380;BME280;22411;53.016;18.632;2023-01-25T06:13:18;102637.66;;;-1.82;100.00
36380;BME280;22411;53.016;18.632;2023-01-25T06:15:55;102641.94;;;-1.80;100.00
36380;BME280;22411;53.016;18.632;2023-01-25T06:18:24;102645.22;;;-1.86;100.00
36380;BME280;22411;53.016;18.632;2023-01-25T06:20:51;102636.72;;;-1.88;100.00
36380;BME280;22411;53.016;18.632;2023-01-25T06:23:19;102637.50;;;-1.90;100.00
36380;BME280;22411;53.016;18.632;2023-01-25T06:25:47;102634.97;;;-1.90;100.00
36380;BME280;22411;53.016;18.632;2023-01-25T06:28:13;102630.72;;;-1.93;100.00
36380;BME280;22411;53.016;18.632;2023-01-25T06:30:40;102635.03;;;-1.89;100.00
36380;BME280;22411;53.016;18.632;2023-01-25T06:33:06;102631.66;;;-1.86;100.00
36380;BME280;22411;53.016;18.632;2023-01-25T06:35:33;102626.47;;;-1.94;100.00
36380;BME280;22411;53.016;18.632;2023-01-25T06:38:01;102628.22;;;-1.90;100.00
36380;BME280;22411;53.016;18.632;2023-01-25T06:40:27;102625.72;;;-1.88;100.00
36380;BME280;22411;53.016;18.632;2023-01-25T06:42:53;102627.44;;;-1.86;100.00
36380;BME280;22411;53.016;18.632;2023-01-25T06:45:19;102627.44;;;-1.86;100.00
36380;BME280;22411;53.016;18.632;2023-01-25T06:47:48;102629.19;;;-1.83;100.00
36380;BME280;22411;53.016;18.632;2023-01-25T06:50:17;102630.03;;;-1.82;100.00
36380;BME280;22411;53.016;18.632;2023-01-25T06:52:52;102627.44;;;-1.86;100.00
36380;BME280;22411;53.016;18.632;2023-01-25T06:55:19;102621.50;;;-1.86;100.00
36380;BME280;22411;53.016;18.632;2023-01-25T06:57:46;102616.41;;;-1.86;100.00
36380;BME280;22411;53.016;18.632;2023-01-25T07:00:12;102618.94;;;-1.86;100.00
36380;BME280;22411;53.016;18.632;2023-01-25T07:02:38;102619.97;;;-1.76;100.00
36380;BME280;22411;53.016;18.632;2023-01-25T07:05:04;102619.91;;;-1.79;100.00
36380;BME280;22411;53.016;18.632;2023-01-25T07:07:30;102619.13;;;-1.75;100.00
36380;BME280;22411;53.016;18.632;2023-01-25T07:09:56;102617.41;;;-1.76;100.00
36380;BME280;22411;53.016;18.632;2023-01-25T07:12:27;102607.25;;;-1.75;100.00
36380;BME280;22411;53.016;18.632;2023-01-25T07:14:53;102608.84;;;-1.85;100.00
36380;BME280;22411;53.016;18.632;2023-01-25T07:17:20;102601.22;;;-1.81;100.00
36380;BME280;22411;53.016;18.632;2023-01-25T07:19:47;102602.94;;;-1.82;100.00
36380;BME280;22411;53.016;18.632;2023-01-25T07:22:14;102586.75;;;-1.87;100.00
36380;BME280;22411;53.016;18.632;2023-01-25T07:24:41;102583.41;;;-1.85;100.00
36380;BME280;22411;53.016;18.632;2023-01-25T07:27:08;102584.34;;;-1.78;100.00
36380;BME280;22411;53.016;18.632;2023-01-25T07:29:33;102575.03;;;-1.79;100.00
36380;BME280;22411;53.016;18.632;2023-01-25T07:32:00;102588.53;;;-1.80;100.00
36380;BME280;22411;53.016;18.632;2023-01-25T07:34:25;102583.50;;;-1.78;100.00
36380;BME280;22411;53.016;18.632;2023-01-25T07:36:53;102580.22;;;-1.71;100.00
36380;BME280;22411;53.016;18.632;2023-01-25T07:39:19;102581.06;;;-1.71;100.00
36380;BME280;22411;53.016;18.632;2023-01-25T07:41:45;102581.81;;;-1.78;100.00
36380;BME280;22411;53.016;18.632;2023-01-25T07:44:12;102575.09;;;-1.73;100.00
36380;BME280;22411;53.016;18.632;2023-01-25T07:46:41;102572.50;;;-1.76;100.00
36380;BME280;22411;53.016;18.632;2023-01-25T07:49:07;102574.25;;;-1.73;100.00
36380;BME280;22411;53.016;18.632;2023-01-25T07:51:33;102577.75;;;-1.67;100.00
36380;BME280;22411;53.016;18.632;2023-01-25T07:54:03;102569.34;;;-1.61;100.00
36380;BME280;22411;53.016;18.632;2023-01-25T07:56:35;102567.66;;;-1.61;100.00
36380;BME280;22411;53.016;18.632;2023-01-25T07:59:03;102573.59;;;-1.60;100.00
36380;BME280;22411;53.016;18.632;2023-01-25T08:01:30;102568.50;;;-1.60;100.00
36380;BME280;22411;53.016;18.632;2023-01-25T08:04:02;102565.94;;;-1.62;100.00
36380;BME280;22411;53.016;18.632;2023-01-25T08:06:31;102566.03;;;-1.55;100.00
36380;BME280;22411;53.016;18.632;2023-01-25T08:09:15;102557.50;;;-1.59;100.00
36380;BME280;22411;53.016;18.632;2023-01-25T08:11:44;102557.41;;;-1.67;100.00
36380;BME280;22411;53.016;18.632;2023-01-25T08:14:10;102550.59;;;-1.68;100.00
36380;BME280;22411;53.016;18.632;2023-01-25T08:16:37;102542.22;;;-1.61;100.00
36380;BME280;22411;53.016;18.632;2023-01-25T08:19:03;102538.13;;;-1.51;100.00
36380;BME280;22411;53.016;18.632;2023-01-25T08:21:31;102536.44;;;-1.50;100.00
36380;BME280;22411;53.016;18.632;2023-01-25T08:24:03;102533.81;;;-1.55;100.00
36380;BME280;22411;53.016;18.632;2023-01-25T08:26:29;102527.03;;;-1.54;100.00
36380;BME280;22411;53.016;18.632;2023-01-25T08:28:56;102535.53;;;-1.54;100.00
36380;BME280;22411;53.016;18.632;2023-01-25T08:31:24;102539.69;;;-1.59;100.00
36380;BME280;22411;53.016;18.632;2023-01-25T08:33:51;102544.84;;;-1.53;100.00
36380;BME280;22411;53.016;18.632;2023-01-25T08:36:26;102543.19;;;-1.52;100.00
36380;BME280;22411;53.016;18.632;2023-01-25T08:38:58;102544.97;;;-1.45;100.00
36380;BME280;22411;53.016;18.632;2023-01-25T08:41:26;102539.81;;;-1.51;100.00
36380;BME280;22411;53.016;18.632;2023-01-25T08:43:53;102541.59;;;-1.46;100.00
36380;BME280;22411;53.016;18.632;2023-01-25T08:46:26;102533.16;;;-1.42;100.00
36380;BME280;22411;53.016;18.632;2023-01-25T08:48:53;102537.41;;;-1.41;100.00
36380;BME280;22411;53.016;18.632;2023-01-25T08:51:23;102537.41;;;-1.42;100.00
36380;BME280;22411;53.016;18.632;2023-01-25T08:53:51;102532.19;;;-1.51;100.00
36380;BME280;22411;53.016;18.632;2023-01-25T08:56:19;102534.69;;;-1.53;100.00
36380;BME280;22411;53.016;18.632;2023-01-25T08:58:49;102537.28;;;-1.48;100.00
36380;BME280;22411;53.016;18.632;2023-01-25T09:01:18;102544.22;;;-1.38;100.00
36380;BME280;22411;53.016;18.632;2023-01-25T09:03:49;102539.97;;;-1.38;100.00
36380;BME280;22411;53.016;18.632;2023-01-25T09:06:22;102534.88;;;-1.39;100.00
36380;BME280;22411;53.016;18.632;2023-01-25T09:08:54;102541.75;;;-1.34;100.00
36380;BME280;22411;53.016;18.632;2023-01-25T09:11:22;102536.66;;;-1.32;100.00
36380;BME280;22411;53.016;18.632;2023-01-25T09:13:50;102534.94;;;-1.36;100.00
36380;BME280;22411;53.016;18.632;2023-01-25T09:16:22;102533.25;;;-1.33;100.00
36380;BME280;22411;53.016;18.632;2023-01-25T09:18:59;102530.75;;;-1.31;100.00
36380;BME280;22411;53.016;18.632;2023-01-25T09:21:26;102535.00;;;-1.30;100.00
36380;BME280;22411;53.016;18.632;2023-01-25T09:23:53;102527.38;;;-1.32;100.00
36380;BME280;22411;53.016;18.632;2023-01-25T09:26:20;102524.00;;;-1.27;100.00
36380;BME280;22411;53.016;18.632;2023-01-25T09:28:51;102519.72;;;-1.32;100.00
36380;BME280;22411;53.016;18.632;2023-01-25T09:31:21;102515.50;;;-1.31;100.00
36380;BME280;22411;53.016;18.632;2023-01-25T09:33:49;102507.75;;;-1.37;100.00
36380;BME280;22411;53.016;18.632;2023-01-25T09:36:16;102509.50;;;-1.36;100.00
36380;BME280;22411;53.016;18.632;2023-01-25T09:38:42;102503.56;;;-1.34;100.00
36380;BME280;22411;53.016;18.632;2023-01-25T09:44:17;102507.03;;;-1.27;100.00
36380;BME280;22411;53.016;18.632;2023-01-25T09:46:47;102501.09;;;-1.27;100.00
36380;BME280;22411;53.016;18.632;2023-01-25T09:52:42;102498.59;;;-1.26;100.00
36380;BME280;22411;53.016;18.632;2023-01-25T09:55:13;102496.94;;;-1.22;100.00
36380;BME280;22411;53.016;18.632;2023-01-25T09:57:41;102484.19;;;-1.24;100.00
36380;BME280;22411;53.016;18.632;2023-01-25T10:00:18;102481.72;;;-1.19;100.00
36380;BME280;22411;53.016;18.632;2023-01-25T10:05:50;102458.84;;;-1.15;100.00
36380;BME280;22411;53.016;18.632;2023-01-25T10:11:21;102463.94;;;-1.15;100.00
36380;BME280;22411;53.016;18.632;2023-01-25T10:13:48;102463.16;;;-1.09;100.00
36380;BME280;22411;53.016;18.632;2023-01-25T10:19:30;102454.63;;;-1.14;100.00
36380;BME280;22411;53.016;18.632;2023-01-25T10:22:18;102452.88;;;-1.18;100.00
36380;BME280;22411;53.016;18.632;2023-01-25T10:33:26;102438.28;;;-1.33;100.00
36380;BME280;22411;53.016;18.632;2023-01-25T10:35:54;102436.63;;;-1.29;100.00
36380;BME280;22411;53.016;18.632;2023-01-25T10:38:29;102433.25;;;-1.30;100.00
36380;BME280;22411;53.016;18.632;2023-01-25T10:41:01;102425.66;;;-1.24;100.00
36380;BME280;22411;53.016;18.632;2023-01-25T10:43:29;102420.63;;;-1.19;100.00
36380;BME280;22411;53.016;18.632;2023-01-25T10:45:56;102418.94;;;-1.20;100.00
36380;BME280;22411;53.016;18.632;2023-01-25T10:48:26;102413.00;;;-1.19;100.00
36380;BME280;22411;53.016;18.632;2023-01-25T10:50:54;102417.19;;;-1.21;100.00
36380;BME280;22411;53.016;18.632;2023-01-25T10:56:25;102408.75;;;-1.17;100.00
36380;BME280;22411;53.016;18.632;2023-01-25T10:59:05;102398.63;;;-1.13;100.00
36380;BME280;22411;53.016;18.632;2023-01-25T11:01:34;102402.09;;;-1.06;100.00
36380;BME280;22411;53.016;18.632;2023-01-25T11:04:02;102392.69;;;-1.15;100.00
36380;BME280;22411;53.016;18.632;2023-01-25T11:06:34;102388.44;;;-1.14;100.00
36380;BME280;22411;53.016;18.632;2023-01-25T11:09:28;102378.25;;;-1.16;100.00
36380;BME280;22411;53.016;18.632;2023-01-25T11:14:36;102369.78;;;-1.15;100.00
36380;BME280;22411;53.016;18.632;2023-01-25T11:17:04;102365.59;;;-1.07;100.00
36380;BME280;22411;53.016;18.632;2023-01-25T11:19:37;102356.25;;;-1.08;100.00
36380;BME280;22411;53.016;18.632;2023-01-25T11:24:46;102358.81;;;-1.08;100.00
36380;BME280;22411;53.016;18.632;2023-01-25T11:27:23;102347.81;;;-1.03;100.00
36380;BME280;22411;53.016;18.632;2023-01-25T11:30:09;102339.34;;;-1.02;100.00
36380;BME280;22411;53.016;18.632;2023-01-25T11:32:39;102337.66;;;-1.03;100.00
36380;BME280;22411;53.016;18.632;2023-01-25T11:35:20;102326.63;;;-1.04;100.00
36380;BME280;22411;53.016;18.632;2023-01-25T11:40:39;102321.53;;;-1.02;100.00
36380;BME280;22411;53.016;18.632;2023-01-25T11:49:04;102313.09;;;-0.98;100.00
36380;BME280;22411;53.016;18.632;2023-01-25T11:52:47;102319.06;;;-0.92;100.00
36380;BME280;22411;53.016;18.632;2023-01-25T11:54:51;102312.31;;;-0.88;100.00
36380;BME280;22411;53.016;18.632;2023-01-25T11:57:44;102323.31;;;-0.94;100.00
36380;BME280;22411;53.016;18.632;2023-01-25T12:00:41;102302.91;;;-1.00;100.00
36380;BME280;22411;53.016;18.632;2023-01-25T12:06:18;102319.78;;;-1.08;100.00
36380;BME280;22411;53.016;18.632;2023-01-25T12:12:10;102305.31;;;-1.12;100.00
36380;BME280;22411;53.016;18.632;2023-01-25T12:17:26;102285.84;;;-1.06;100.00
36380;BME280;22411;53.016;18.632;2023-01-25T12:20:00;102282.50;;;-1.01;100.00
36380;BME280;22411;53.016;18.632;2023-01-25T12:25:18;102273.22;;;-0.98;100.00
36380;BME280;22411;53.016;18.632;2023-01-25T12:30:49;102260.56;;;-0.89;100.00
36380;BME280;22411;53.016;18.632;2023-01-25T12:34:09;102259.69;;;-0.88;100.00
36380;BME280;22411;53.016;18.632;2023-01-25T12:47:13;102233.25;;;-1.07;100.00
36380;BME280;22411;53.016;18.632;2023-01-25T12:49:54;102223.06;;;-1.08;100.00
36380;BME280;22411;53.016;18.632;2023-01-25T12:52:31;102225.56;;;-1.14;100.00
36380;BME280;22411;53.016;18.632;2023-01-25T12:55:14;102229.00;;;-1.08;100.00
36380;BME280;22411;53.016;18.632;2023-01-25T12:57:52;102218.91;;;-0.98;100.00
36380;BME280;22411;53.016;18.632;2023-01-25T13:03:11;102213.78;;;-1.01;100.00
36380;BME280;22411;53.016;18.632;2023-01-25T13:10:54;102213.63;;;-1.26;100.00
36380;BME280;22411;53.016;18.632;2023-01-25T13:13:26;102203.44;;;-1.23;100.00
36380;BME280;22411;53.016;18.632;2023-01-25T13:15:54;102207.69;;;-1.22;100.00
36380;BME280;22411;53.016;18.632;2023-01-25T13:20:57;102195.81;;;-1.23;100.00
36380;BME280;22411;53.016;18.632;2023-01-25T13:28:52;102179.75;;;-1.20;100.00
36380;BME280;22411;53.016;18.632;2023-01-25T13:36:54;102158.50;;;-1.24;100.00
36380;BME280;22411;53.016;18.632;2023-01-25T13:42:28;102149.16;;;-1.22;100.00
36380;BME280;22411;53.016;18.632;2023-01-25T13:45:22;102135.59;;;-1.24;100.00
36380;BME280;22411;53.016;18.632;2023-01-25T13:48:21;102127.97;;;-1.25;100.00
36380;BME280;22411;53.016;18.632;2023-01-25T13:50:56;102128.00;;;-1.18;100.00
36380;BME280;22411;53.016;18.632;2023-01-25T13:53:25;102121.22;;;-1.20;100.00
36380;BME280;22411;53.016;18.632;2023-01-25T13:56:00;102127.97;;;-1.22;100.00
36380;BME280;22411;53.016;18.632;2023-01-25T13:58:34;102131.34;;;-1.25;100.00
36380;BME280;22411;53.016;18.632;2023-01-25T14:01:20;102120.28;;;-1.33;100.00
36380;BME280;22411;53.016;18.632;2023-01-25T14:04:02;102121.19;;;-1.26;100.00
36380;BME280;22411;53.016;18.632;2023-01-25T14:06:37;102122.03;;;-1.21;100.00
36380;BME280;22411;53.016;18.632;2023-01-25T14:09:26;102112.69;;;-1.25;100.00
36380;BME280;22411;53.016;18.632;2023-01-25T14:11:57;102115.25;;;-1.25;100.00
36380;BME280;22411;53.016;18.632;2023-01-25T14:14:32;102111.81;;;-1.29;100.00
36380;BME280;22411;53.016;18.632;2023-01-25T14:17:19;102105.03;;;-1.30;100.00
36380;BME280;22411;53.016;18.632;2023-01-25T14:19:53;102094.88;;;-1.32;100.00
36380;BME280;22411;53.016;18.632;2023-01-25T14:22:25;102101.66;;;-1.29;100.00
36380;BME280;22411;53.016;18.632;2023-01-25T14:25:18;102092.28;;;-1.33;100.00
36380;BME280;22411;53.016;18.632;2023-01-25T14:28:00;102094.88;;;-1.27;100.00